createdAt,value
2018-03-01T00:00:04.214Z,1.59
2018-03-01T00:01:04.223Z,1.6
2018-03-01T00:02:04.246Z,1.6
2018-03-01T00:03:04.231Z,1.6
2018-03-01T00:04:04.237Z,1.59
2018-03-01T00:05:04.247Z,1.6
2018-03-01T00:06:04.393Z,1.59
2018-03-01T00:07:04.243Z,1.6
2018-03-01T00:08:04.247Z,1.6
2018-03-01T00:09:04.261Z,1.6
2018-03-01T00:10:04.265Z,1.6
2018-03-01T00:11:04.288Z,1.6
2018-03-01T00:12:04.274Z,1.59
2018-03-01T00:13:04.301Z,1.6
2018-03-01T00:14:04.287Z,1.6
2018-03-01T00:15:04.294Z,1.6
2018-03-01T00:16:04.299Z,1.6
2018-03-01T00:17:04.287Z,1.6
2018-03-01T00:18:04.286Z,1.59
2018-03-01T00:19:04.301Z,1.6
2018-03-01T00:20:04.297Z,1.6
2018-03-01T00:21:04.293Z,1.6
2018-03-01T00:22:04.338Z,1.6
2018-03-01T00:23:04.314Z,1.61
2018-03-01T00:24:04.314Z,1.61
2018-03-01T00:25:04.322Z,1.61
2018-03-01T00:26:04.328Z,1.61
2018-03-01T00:27:04.346Z,1.61
2018-03-01T00:28:04.491Z,1.61
2018-03-01T00:29:04.327Z,1.61
2018-03-01T00:30:04.340Z,1.61
2018-03-01T00:31:04.349Z,1.61
2018-03-01T00:32:04.371Z,1.61
2018-03-01T00:33:04.346Z,1.6
2018-03-01T00:34:04.335Z,1.61
2018-03-01T00:35:04.377Z,1.61
2018-03-01T00:36:04.345Z,1.61
2018-03-01T00:37:04.340Z,1.61
2018-03-01T00:38:04.360Z,1.61
2018-03-01T00:39:04.352Z,1.6
2018-03-01T00:40:04.366Z,1.6
2018-03-01T00:41:04.362Z,1.61
2018-03-01T00:42:04.372Z,1.61
2018-03-01T00:43:04.443Z,1.61
2018-03-01T00:44:04.371Z,1.61
2018-03-01T00:45:04.400Z,1.6
2018-03-01T00:46:04.409Z,1.6
2018-03-01T00:47:04.389Z,1.6
2018-03-01T00:48:06.064Z,1.61
2018-03-01T00:49:04.455Z,1.6
2018-03-01T00:50:04.401Z,1.61
2018-03-01T00:51:04.410Z,1.61
2018-03-01T00:52:04.403Z,1.61
2018-03-01T00:53:08.352Z,1.61
2018-03-01T00:54:04.430Z,1.61
2018-03-01T00:55:04.420Z,1.61
2018-03-01T00:56:04.438Z,1.61
2018-03-01T00:57:04.428Z,1.6
2018-03-01T00:58:04.442Z,1.61
2018-03-01T00:59:04.432Z,1.6
2018-03-01T01:00:04.431Z,1.61
2018-03-01T01:01:04.435Z,1.61
2018-03-01T01:02:04.487Z,1.61
2018-03-01T01:03:04.451Z,1.6
2018-03-01T01:04:04.471Z,1.6
2018-03-01T01:05:04.471Z,1.6
2018-03-01T01:06:04.487Z,1.6
2018-03-01T01:07:04.453Z,1.6
2018-03-01T01:08:04.477Z,1.61
2018-03-01T01:09:04.472Z,1.6
2018-03-01T01:10:04.476Z,1.6
2018-03-01T01:11:04.735Z,1.6
2018-03-01T01:12:04.475Z,1.6
2018-03-01T01:13:04.475Z,1.6
2018-03-01T01:14:04.489Z,1.6
2018-03-01T01:15:04.489Z,1.6
2018-03-01T01:16:04.511Z,1.59
2018-03-01T01:17:04.472Z,1.61
2018-03-01T01:18:04.496Z,1.6
2018-03-01T01:19:04.488Z,1.6
2018-03-01T01:20:04.495Z,1.6
2018-03-01T01:21:04.516Z,1.6
2018-03-01T01:22:04.502Z,1.59
2018-03-01T01:23:04.511Z,1.59
2018-03-01T01:24:04.517Z,1.6
2018-03-01T01:25:04.530Z,1.59
2018-03-01T01:26:04.540Z,1.59
2018-03-01T01:27:04.560Z,1.59
2018-03-01T01:28:04.511Z,1.59
2018-03-01T01:29:04.512Z,1.59
2018-03-01T01:30:04.544Z,1.59
2018-03-01T01:31:04.855Z,1.59
2018-03-01T01:32:04.533Z,1.59
2018-03-01T01:33:04.549Z,1.59
2018-03-01T01:34:04.547Z,1.59
2018-03-01T01:35:04.548Z,1.58
2018-03-01T01:36:04.564Z,1.58
2018-03-01T01:37:04.558Z,1.59
2018-03-01T01:38:04.539Z,1.59
2018-03-01T01:39:04.563Z,1.59
2018-03-01T01:40:04.556Z,1.59
2018-03-01T01:41:04.731Z,1.59
2018-03-01T01:42:04.670Z,1.59
2018-03-01T01:43:04.580Z,1.59
2018-03-01T01:44:04.585Z,1.59
2018-03-01T01:45:04.568Z,1.59
2018-03-01T01:46:04.574Z,1.59
2018-03-01T01:47:04.607Z,1.59
2018-03-01T01:48:04.580Z,1.59
2018-03-01T01:49:04.588Z,1.58
2018-03-01T01:50:04.578Z,1.58
2018-03-01T01:51:04.588Z,1.58
2018-03-01T01:52:04.600Z,1.59
2018-03-01T01:53:04.599Z,1.59
2018-03-01T01:54:04.622Z,1.59
2018-03-01T01:55:04.625Z,1.58
2018-03-01T01:56:04.635Z,1.58
2018-03-01T01:57:04.601Z,1.58
2018-03-01T01:58:04.621Z,1.58
2018-03-01T01:59:04.629Z,1.58
2018-03-01T02:00:04.610Z,1.59
2018-03-01T02:01:04.606Z,1.59
2018-03-01T02:02:04.613Z,1.58
2018-03-01T02:03:04.658Z,1.58
2018-03-01T02:04:04.650Z,1.59
2018-03-01T02:05:04.634Z,1.58
2018-03-01T02:06:04.666Z,1.57
2018-03-01T02:07:04.646Z,1.57
2018-03-01T02:08:04.624Z,1.58
2018-03-01T02:09:04.677Z,1.58
2018-03-01T02:10:04.632Z,1.58
2018-03-01T02:11:04.643Z,1.58
2018-03-01T02:12:04.641Z,1.58
2018-03-01T02:13:04.657Z,1.58
2018-03-01T02:14:04.666Z,1.58
2018-03-01T02:15:04.663Z,1.58
2018-03-01T02:16:04.681Z,1.58
2018-03-01T02:17:04.667Z,1.58
2018-03-01T02:18:04.708Z,1.58
2018-03-01T02:19:04.685Z,1.58
2018-03-01T02:20:04.675Z,1.58
2018-03-01T02:21:04.991Z,1.58
2018-03-01T02:22:04.760Z,1.58
2018-03-01T02:23:04.677Z,1.59
2018-03-01T02:24:04.703Z,1.59
2018-03-01T02:25:04.766Z,1.58
2018-03-01T02:26:04.723Z,1.58
2018-03-01T02:27:04.713Z,1.58
2018-03-01T02:28:04.713Z,1.59
2018-03-01T02:29:04.733Z,1.58
2018-03-01T02:30:04.900Z,1.58
2018-03-01T02:31:04.754Z,1.58
2018-03-01T02:32:04.744Z,1.58
2018-03-01T02:33:04.750Z,1.58
2018-03-01T02:34:04.737Z,1.57
2018-03-01T02:35:04.731Z,1.58
2018-03-01T02:36:11.680Z,1.58
2018-03-01T02:37:04.739Z,1.57
2018-03-01T02:38:04.738Z,1.58
2018-03-01T02:39:04.763Z,1.58
2018-03-01T02:40:04.789Z,1.58
2018-03-01T02:41:04.838Z,1.58
2018-03-01T02:42:04.783Z,1.58
2018-03-01T02:43:04.775Z,1.58
2018-03-01T02:44:04.787Z,1.58
2018-03-01T02:45:04.784Z,1.58
2018-03-01T02:46:04.780Z,1.58
2018-03-01T02:47:04.781Z,1.58
2018-03-01T02:48:04.923Z,1.58
2018-03-01T02:49:04.829Z,1.59
2018-03-01T02:50:04.794Z,1.58
2018-03-01T02:51:04.773Z,1.58
2018-03-01T02:52:04.806Z,1.59
2018-03-01T02:53:04.788Z,1.59
2018-03-01T02:54:04.849Z,1.58
2018-03-01T02:55:04.819Z,1.58
2018-03-01T02:56:04.803Z,1.58
2018-03-01T02:57:04.954Z,1.58
2018-03-01T02:58:04.801Z,1.59
2018-03-01T02:59:05.235Z,1.59
2018-03-01T03:00:04.836Z,1.59
2018-03-01T03:01:04.858Z,1.59
2018-03-01T03:02:04.846Z,1.58
2018-03-01T03:03:04.826Z,1.59
2018-03-01T03:04:04.856Z,1.59
2018-03-01T03:05:04.845Z,1.59
2018-03-01T03:06:04.938Z,1.59
2018-03-01T03:07:04.843Z,1.59
2018-03-01T03:08:04.839Z,1.59
2018-03-01T03:09:04.833Z,1.59
2018-03-01T03:10:04.899Z,1.59
2018-03-01T03:11:04.867Z,1.59
2018-03-01T03:12:04.875Z,1.59
2018-03-01T03:13:04.872Z,1.59
2018-03-01T03:14:04.879Z,1.59
2018-03-01T03:15:04.905Z,1.59
2018-03-01T03:16:04.880Z,1.59
2018-03-01T03:17:04.878Z,1.59
2018-03-01T03:18:04.880Z,1.59
2018-03-01T03:19:04.900Z,1.59
2018-03-01T03:20:05.086Z,1.59
2018-03-01T03:21:04.905Z,1.59
2018-03-01T03:22:04.892Z,1.59
2018-03-01T03:23:04.896Z,1.59
2018-03-01T03:24:04.904Z,1.59
2018-03-01T03:25:04.918Z,1.59
2018-03-01T03:26:04.908Z,1.6
2018-03-01T03:27:04.899Z,1.59
2018-03-01T03:28:04.921Z,1.59
2018-03-01T03:29:04.918Z,1.59
2018-03-01T03:30:04.924Z,1.59
2018-03-01T03:31:04.939Z,1.59
2018-03-01T03:32:04.933Z,1.59
2018-03-01T03:33:04.915Z,1.59
2018-03-01T03:34:04.920Z,1.59
2018-03-01T03:35:04.935Z,1.6
2018-03-01T03:36:04.968Z,1.59
2018-03-01T03:37:04.928Z,1.59
2018-03-01T03:38:04.937Z,1.59
2018-03-01T03:39:04.953Z,1.59
2018-03-01T03:40:04.962Z,1.59
2018-03-01T03:41:05.233Z,1.59
2018-03-01T03:42:04.987Z,1.59
2018-03-01T03:43:04.958Z,1.59
2018-03-01T03:44:04.952Z,1.59
2018-03-01T03:45:04.966Z,1.59
2018-03-01T03:46:04.979Z,1.59
2018-03-01T03:47:04.972Z,1.58
2018-03-01T03:48:04.974Z,1.59
2018-03-01T03:49:04.987Z,1.59
2018-03-01T03:50:05.235Z,1.59
2018-03-01T03:51:05.045Z,1.59
2018-03-01T03:52:05.013Z,1.59
2018-03-01T03:53:04.999Z,1.59
2018-03-01T03:54:05.007Z,1.59
2018-03-01T03:55:05.010Z,1.59
2018-03-01T03:56:05.008Z,1.59
2018-03-01T03:57:05.023Z,1.59
2018-03-01T03:58:05.004Z,1.6
2018-03-01T03:59:05.003Z,1.59
2018-03-01T04:00:05.008Z,1.6
2018-03-01T04:01:05.006Z,1.6
2018-03-01T04:02:05.017Z,1.59
2018-03-01T04:03:05.192Z,1.6
2018-03-01T04:04:05.038Z,1.6
2018-03-01T04:05:05.029Z,1.6
2018-03-01T04:06:05.045Z,1.59
2018-03-01T04:07:05.026Z,1.59
2018-03-01T04:08:05.194Z,1.59
2018-03-01T04:09:05.056Z,1.59
2018-03-01T04:10:05.075Z,1.59
2018-03-01T04:11:05.045Z,1.59
2018-03-01T04:12:05.334Z,1.59
2018-03-01T04:13:05.046Z,1.58
2018-03-01T04:14:05.058Z,1.58
2018-03-01T04:15:05.059Z,1.59
2018-03-01T04:16:05.054Z,1.59
2018-03-01T04:17:05.079Z,1.59
2018-03-01T04:18:05.065Z,1.58
2018-03-01T04:19:05.067Z,1.59
2018-03-01T04:20:05.072Z,1.58
2018-03-01T04:21:05.079Z,1.59
2018-03-01T04:22:05.085Z,1.59
2018-03-01T04:23:05.101Z,1.59
2018-03-01T04:24:05.089Z,1.59
2018-03-01T04:25:05.082Z,1.59
2018-03-01T04:26:05.099Z,1.59
2018-03-01T04:27:05.094Z,1.59
2018-03-01T04:28:05.125Z,1.59
2018-03-01T04:29:05.106Z,1.59
2018-03-01T04:30:05.112Z,1.59
2018-03-01T04:31:05.119Z,1.59
2018-03-01T04:32:05.103Z,1.59
2018-03-01T04:33:05.375Z,1.6
2018-03-01T04:34:05.145Z,1.61
2018-03-01T04:35:05.114Z,1.6
2018-03-01T04:36:05.360Z,1.61
2018-03-01T04:37:05.128Z,1.61
2018-03-01T04:38:05.152Z,1.59
2018-03-01T04:39:05.144Z,1.59
2018-03-01T04:40:05.124Z,1.59
2018-03-01T04:41:05.133Z,1.59
2018-03-01T04:42:05.138Z,1.6
2018-03-01T04:43:05.145Z,1.59
2018-03-01T04:44:05.152Z,1.6
2018-03-01T04:45:05.140Z,1.6
2018-03-01T04:46:05.146Z,1.6
2018-03-01T04:47:05.161Z,1.6
2018-03-01T04:48:05.159Z,1.59
2018-03-01T04:49:05.411Z,1.6
2018-03-01T04:50:05.160Z,1.6
2018-03-01T04:51:05.168Z,1.6
2018-03-01T04:52:05.173Z,1.61
2018-03-01T04:53:05.168Z,1.61
2018-03-01T04:54:05.203Z,1.61
2018-03-01T04:55:05.180Z,1.61
2018-03-01T04:56:05.179Z,1.61
2018-03-01T04:57:05.194Z,1.61
2018-03-01T04:58:05.268Z,1.61
2018-03-01T04:59:05.344Z,1.61
2018-03-01T05:00:05.446Z,1.61
2018-03-01T05:01:05.202Z,1.61
2018-03-01T05:02:05.344Z,1.61
2018-03-01T05:03:05.366Z,1.61
2018-03-01T05:04:05.482Z,1.61
2018-03-01T05:05:05.231Z,1.61
2018-03-01T05:06:05.221Z,1.61
2018-03-01T05:07:05.246Z,1.61
2018-03-01T05:08:05.218Z,1.61
2018-03-01T05:09:05.241Z,1.61
2018-03-01T05:10:05.379Z,1.6
2018-03-01T05:11:05.237Z,1.61
2018-03-01T05:12:05.246Z,1.61
2018-03-01T05:13:05.233Z,1.61
2018-03-01T05:14:05.254Z,1.61
2018-03-01T05:15:05.249Z,1.61
2018-03-01T05:16:05.911Z,1.61
2018-03-01T05:17:05.245Z,1.61
2018-03-01T05:18:05.262Z,1.61
2018-03-01T05:19:05.255Z,1.61
2018-03-01T05:20:05.306Z,1.61
2018-03-01T05:21:05.277Z,1.61
2018-03-01T05:22:05.254Z,1.61
2018-03-01T05:23:05.274Z,1.62
2018-03-01T05:24:05.288Z,1.62
2018-03-01T05:25:05.275Z,1.62
2018-03-01T05:26:05.274Z,1.62
2018-03-01T05:27:05.256Z,1.62
2018-03-01T05:28:05.274Z,1.62
2018-03-01T05:29:05.273Z,1.61
2018-03-01T05:30:05.251Z,1.61
2018-03-01T05:31:05.272Z,1.6
2018-03-01T05:32:05.260Z,1.6
2018-03-01T05:33:05.265Z,1.61
2018-03-01T05:34:05.295Z,1.61
2018-03-01T05:35:05.285Z,1.61
2018-03-01T05:36:05.261Z,1.61
2018-03-01T05:37:05.282Z,1.61
2018-03-01T05:38:05.272Z,1.61
2018-03-01T05:39:05.269Z,1.6
2018-03-01T05:40:05.301Z,1.61
2018-03-01T05:41:05.276Z,1.61
2018-03-01T05:42:05.278Z,1.62
2018-03-01T05:43:05.320Z,1.62
2018-03-01T05:44:05.311Z,1.61
2018-03-01T05:45:05.322Z,1.62
2018-03-01T05:46:05.329Z,1.62
2018-03-01T05:47:05.320Z,1.62
2018-03-01T05:48:05.304Z,1.62
2018-03-01T05:49:05.351Z,1.62
2018-03-01T05:50:05.320Z,1.63
2018-03-01T05:51:05.308Z,1.62
2018-03-01T05:52:05.320Z,1.62
2018-03-01T05:53:05.320Z,1.62
2018-03-01T05:54:05.317Z,1.62
2018-03-01T05:55:05.426Z,1.62
2018-03-01T05:56:05.327Z,1.62
2018-03-01T05:57:05.332Z,1.62
2018-03-01T05:58:05.332Z,1.62
2018-03-01T05:59:05.342Z,1.61
2018-03-01T06:00:05.404Z,1.62
2018-03-01T06:01:05.367Z,1.63
2018-03-01T06:02:05.362Z,1.62
2018-03-01T06:03:05.354Z,1.62
2018-03-01T06:04:05.352Z,1.61
2018-03-01T06:05:05.392Z,1.61
2018-03-01T06:06:05.372Z,1.62
2018-03-01T06:07:05.416Z,1.62
2018-03-01T06:08:05.361Z,1.62
2018-03-01T06:09:05.381Z,1.62
2018-03-01T06:10:05.381Z,1.62
2018-03-01T06:11:05.390Z,1.62
2018-03-01T06:12:05.375Z,1.62
2018-03-01T06:13:05.390Z,1.61
2018-03-01T06:14:05.375Z,1.63
2018-03-01T06:15:05.393Z,1.63
2018-03-01T06:16:05.430Z,1.62
2018-03-01T06:17:05.404Z,1.61
2018-03-01T06:18:05.419Z,1.61
2018-03-01T06:19:05.416Z,1.61
2018-03-01T06:20:05.417Z,1.61
2018-03-01T06:21:05.431Z,1.62
2018-03-01T06:22:05.544Z,1.61
2018-03-01T06:23:05.408Z,1.62
2018-03-01T06:24:05.586Z,1.62
2018-03-01T06:25:05.439Z,1.63
2018-03-01T06:26:05.428Z,1.62
2018-03-01T06:27:05.435Z,1.62
2018-03-01T06:28:05.429Z,1.61
2018-03-01T06:29:05.447Z,1.62
2018-03-01T06:30:05.677Z,1.62
2018-03-01T06:31:05.578Z,1.63
2018-03-01T06:32:05.462Z,1.63
2018-03-01T06:33:05.594Z,1.62
2018-03-01T06:34:05.446Z,1.62
2018-03-01T06:35:05.456Z,1.63
2018-03-01T06:36:05.477Z,1.62
2018-03-01T06:37:05.757Z,1.63
2018-03-01T06:38:05.445Z,1.63
2018-03-01T06:39:05.498Z,1.63
2018-03-01T06:40:05.459Z,1.63
2018-03-01T06:41:05.457Z,1.62
2018-03-01T06:42:05.453Z,1.62
2018-03-01T06:43:05.474Z,1.63
2018-03-01T06:44:05.505Z,1.62
2018-03-01T06:45:05.486Z,1.62
2018-03-01T06:46:05.530Z,1.62
2018-03-01T06:47:05.478Z,1.63
2018-03-01T06:48:05.491Z,1.62
2018-03-01T06:49:05.950Z,1.63
2018-03-01T06:50:05.484Z,1.62
2018-03-01T06:51:05.489Z,1.62
2018-03-01T06:52:05.542Z,1.62
2018-03-01T06:53:05.504Z,1.62
2018-03-01T06:54:05.513Z,1.62
2018-03-01T06:55:05.490Z,1.62
2018-03-01T06:56:05.490Z,1.62
2018-03-01T06:57:05.491Z,1.62
2018-03-01T06:58:05.492Z,1.62
2018-03-01T06:59:05.715Z,1.62
2018-03-01T07:00:05.525Z,1.62
2018-03-01T07:01:05.495Z,1.62
2018-03-01T07:02:05.496Z,1.63
2018-03-01T07:03:05.519Z,1.62
2018-03-01T07:04:05.512Z,1.62
2018-03-01T07:05:05.544Z,1.62
2018-03-01T07:06:05.528Z,1.62
2018-03-01T07:07:05.565Z,1.62
2018-03-01T07:08:05.552Z,1.63
2018-03-01T07:09:05.529Z,1.62
2018-03-01T07:10:05.712Z,1.63
2018-03-01T07:11:05.785Z,1.63
2018-03-01T07:12:05.560Z,1.63
2018-03-01T07:13:05.579Z,1.63
2018-03-01T07:14:05.566Z,1.63
2018-03-01T07:15:05.650Z,1.63
2018-03-01T07:16:05.618Z,1.62
2018-03-01T07:17:05.559Z,1.63
2018-03-01T07:18:05.607Z,1.62
2018-03-01T07:19:05.573Z,1.62
2018-03-01T07:20:05.717Z,1.62
2018-03-01T07:21:05.618Z,1.62
2018-03-01T07:22:05.563Z,1.62
2018-03-01T07:23:05.575Z,1.62
2018-03-01T07:24:05.570Z,1.63
2018-03-01T07:25:05.755Z,1.63
2018-03-01T07:26:05.624Z,1.63
2018-03-01T07:27:05.625Z,1.64
2018-03-01T07:28:05.566Z,1.63
2018-03-01T07:29:05.575Z,1.64
2018-03-01T07:30:05.605Z,1.64
2018-03-01T07:31:05.590Z,1.63
2018-03-01T07:32:05.601Z,1.63
2018-03-01T07:33:05.604Z,1.63
2018-03-01T07:34:05.604Z,1.63
2018-03-01T07:35:05.603Z,1.62
2018-03-01T07:36:05.629Z,1.63
2018-03-01T07:37:05.695Z,1.63
2018-03-01T07:38:05.621Z,1.63
2018-03-01T07:39:05.836Z,1.62
2018-03-01T07:40:05.630Z,1.61
2018-03-01T07:41:05.678Z,1.61
2018-03-01T07:42:05.613Z,1.62
2018-03-01T07:43:05.777Z,1.63
2018-03-01T07:44:05.637Z,1.63
2018-03-01T07:45:05.641Z,1.62
2018-03-01T07:46:05.671Z,1.62
2018-03-01T07:47:05.658Z,1.61
2018-03-01T07:48:05.639Z,1.61
2018-03-01T07:49:05.644Z,1.61
2018-03-01T07:50:05.637Z,1.62
2018-03-01T07:51:05.910Z,1.61
2018-03-01T07:52:05.664Z,1.61
2018-03-01T07:53:05.660Z,1.61
2018-03-01T07:54:05.655Z,1.62
2018-03-01T07:55:05.664Z,1.62
2018-03-01T07:56:05.654Z,1.62
2018-03-01T07:57:05.689Z,1.62
2018-03-01T07:58:05.693Z,1.62
2018-03-01T07:59:05.661Z,1.62
2018-03-01T08:00:05.651Z,1.62
2018-03-01T08:01:05.691Z,1.61
2018-03-01T08:02:05.724Z,1.62
2018-03-01T08:03:05.669Z,1.62
2018-03-01T08:04:05.892Z,1.61
2018-03-01T08:05:05.681Z,1.62
2018-03-01T08:06:05.926Z,1.62
2018-03-01T08:07:05.707Z,1.61
2018-03-01T08:08:05.692Z,1.61
2018-03-01T08:09:05.691Z,1.62
2018-03-01T08:10:05.690Z,1.61
2018-03-01T08:11:05.739Z,1.62
2018-03-01T08:12:05.953Z,1.62
2018-03-01T08:13:05.699Z,1.61
2018-03-01T08:14:05.693Z,1.6
2018-03-01T08:15:05.680Z,1.62
2018-03-01T08:16:05.704Z,1.62
2018-03-01T08:17:05.745Z,1.61
2018-03-01T08:18:05.702Z,1.61
2018-03-01T08:19:05.764Z,1.61
2018-03-01T08:20:05.720Z,1.61
2018-03-01T08:21:05.716Z,1.61
2018-03-01T08:22:05.724Z,1.61
2018-03-01T08:23:05.740Z,1.61
2018-03-01T08:24:05.744Z,1.61
2018-03-01T08:25:05.754Z,1.61
2018-03-01T08:26:05.734Z,1.62
2018-03-01T08:27:05.753Z,1.61
2018-03-01T08:28:05.731Z,1.62
2018-03-01T08:29:06.013Z,1.62
2018-03-01T08:30:05.762Z,1.62
2018-03-01T08:31:05.769Z,1.61
2018-03-01T08:32:05.778Z,1.61
2018-03-01T08:33:05.754Z,1.61
2018-03-01T08:34:05.795Z,1.62
2018-03-01T08:35:05.781Z,1.62
2018-03-01T08:36:05.772Z,1.63
2018-03-01T08:37:05.765Z,1.63
2018-03-01T08:38:05.771Z,1.61
2018-03-01T08:39:05.960Z,1.61
2018-03-01T08:40:05.802Z,1.61
2018-03-01T08:41:05.813Z,1.63
2018-03-01T08:42:05.794Z,1.62
2018-03-01T08:43:05.801Z,1.62
2018-03-01T08:44:05.827Z,1.62
2018-03-01T08:45:05.881Z,1.63
2018-03-01T08:46:05.800Z,1.63
2018-03-01T08:47:06.017Z,1.63
2018-03-01T08:48:05.814Z,1.65
2018-03-01T08:49:06.147Z,1.63
2018-03-01T08:50:05.822Z,1.63
2018-03-01T08:51:05.836Z,1.63
2018-03-01T08:52:05.861Z,1.62
2018-03-01T08:53:05.871Z,1.62
2018-03-01T08:54:05.851Z,1.63
2018-03-01T08:55:05.836Z,1.63
2018-03-01T08:56:05.829Z,1.63
2018-03-01T08:57:05.843Z,1.63
2018-03-01T08:58:05.862Z,1.65
2018-03-01T08:59:05.871Z,1.62
2018-03-01T09:00:05.871Z,1.64
2018-03-01T09:01:05.912Z,1.64
2018-03-01T09:02:05.850Z,1.64
2018-03-01T09:03:05.875Z,1.65
2018-03-01T09:04:05.927Z,1.64
2018-03-01T09:05:06.171Z,1.64
2018-03-01T09:06:05.857Z,1.64
2018-03-01T09:07:05.869Z,1.65
2018-03-01T09:08:05.893Z,1.63
2018-03-01T09:09:05.869Z,1.63
2018-03-01T09:10:05.881Z,1.63
2018-03-01T09:11:05.893Z,1.63
2018-03-01T09:12:05.876Z,1.62
2018-03-01T09:13:05.943Z,1.63
2018-03-01T09:14:05.895Z,1.65
2018-03-01T09:15:05.933Z,1.67
2018-03-01T09:16:05.911Z,1.66
2018-03-01T09:17:05.944Z,1.66
2018-03-01T09:18:05.888Z,1.66
2018-03-01T09:19:05.896Z,1.64
2018-03-01T09:20:05.903Z,1.64
2018-03-01T09:21:05.930Z,1.64
2018-03-01T09:22:05.922Z,1.65
2018-03-01T09:23:05.939Z,1.65
2018-03-01T09:24:05.928Z,1.64
2018-03-01T09:25:05.930Z,1.65
2018-03-01T09:26:06.196Z,1.66
2018-03-01T09:27:05.947Z,1.65
2018-03-01T09:28:05.950Z,1.66
2018-03-01T09:29:06.001Z,1.65
2018-03-01T09:30:06.019Z,1.65
2018-03-01T09:31:05.960Z,1.66
2018-03-01T09:32:05.949Z,1.67
2018-03-01T09:33:05.939Z,1.65
2018-03-01T09:34:05.941Z,1.66
2018-03-01T09:35:05.971Z,1.65
2018-03-01T09:36:06.011Z,1.65
2018-03-01T09:37:05.959Z,1.65
2018-03-01T09:38:06.014Z,1.65
2018-03-01T09:39:05.972Z,1.66
2018-03-01T09:40:05.974Z,1.67
2018-03-01T09:41:05.995Z,1.66
2018-03-01T09:42:05.989Z,1.67
2018-03-01T09:43:05.981Z,1.66
2018-03-01T09:44:06.004Z,1.65
2018-03-01T09:45:05.990Z,1.67
2018-03-01T09:46:06.046Z,1.67
2018-03-01T09:47:05.973Z,1.66
2018-03-01T09:48:05.988Z,1.66
2018-03-01T09:49:05.986Z,1.65
2018-03-01T09:50:06.021Z,1.67
2018-03-01T09:51:06.009Z,1.67
2018-03-01T09:52:05.993Z,1.67
2018-03-01T09:53:06.027Z,1.69
2018-03-01T09:54:06.036Z,1.66
2018-03-01T09:55:06.041Z,1.66
2018-03-01T09:56:06.034Z,1.67
2018-03-01T09:57:06.049Z,1.68
2018-03-01T09:58:06.028Z,1.69
2018-03-01T09:59:06.028Z,1.68
2018-03-01T10:00:06.054Z,1.69
2018-03-01T10:01:06.048Z,1.68
2018-03-01T10:02:06.083Z,1.68
2018-03-01T10:03:06.073Z,1.7
2018-03-01T10:04:06.056Z,1.69
2018-03-01T10:05:06.356Z,1.7
2018-03-01T10:06:06.065Z,1.71
2018-03-01T10:07:06.326Z,1.69
2018-03-01T10:08:06.125Z,1.71
2018-03-01T10:09:06.077Z,1.68
2018-03-01T10:10:06.074Z,1.69
2018-03-01T10:11:06.092Z,1.7
2018-03-01T10:12:06.089Z,1.69
2018-03-01T10:13:06.110Z,1.69
2018-03-01T10:14:06.082Z,1.69
2018-03-01T10:15:06.250Z,1.68
2018-03-01T10:16:06.094Z,1.69
2018-03-01T10:17:06.100Z,1.69
2018-03-01T10:18:06.261Z,1.68
2018-03-01T10:19:06.097Z,1.68
2018-03-01T10:20:06.083Z,1.67
2018-03-01T10:21:06.109Z,1.67
2018-03-01T10:22:06.107Z,1.66
2018-03-01T10:23:06.406Z,1.67
2018-03-01T10:24:06.126Z,1.68
2018-03-01T10:25:06.134Z,1.66
2018-03-01T10:26:06.127Z,1.67
2018-03-01T10:27:06.148Z,1.66
2018-03-01T10:28:06.140Z,1.68
2018-03-01T10:29:06.137Z,1.67
2018-03-01T10:30:06.143Z,1.69
2018-03-01T10:31:06.142Z,1.69
2018-03-01T10:32:06.159Z,1.69
2018-03-01T10:33:06.390Z,1.7
2018-03-01T10:34:06.153Z,1.7
2018-03-01T10:35:06.170Z,1.69
2018-03-01T10:36:06.151Z,1.68
2018-03-01T10:37:06.309Z,1.68
2018-03-01T10:38:06.183Z,1.67
2018-03-01T10:39:06.199Z,1.69
2018-03-01T10:40:06.155Z,1.68
2018-03-01T10:41:06.174Z,1.67
2018-03-01T10:42:06.168Z,1.69
2018-03-01T10:43:06.209Z,1.68
2018-03-01T10:44:06.161Z,1.7
2018-03-01T10:45:06.177Z,1.71
2018-03-01T10:46:06.178Z,1.71
2018-03-01T10:47:06.170Z,1.7
2018-03-01T10:48:06.233Z,1.7
2018-03-01T10:49:06.210Z,1.7
2018-03-01T10:50:06.187Z,1.69
2018-03-01T10:51:06.209Z,1.7
2018-03-01T10:52:06.196Z,1.72
2018-03-01T10:53:06.217Z,1.72
2018-03-01T10:54:06.197Z,1.7
2018-03-01T10:55:06.247Z,1.69
2018-03-01T10:56:06.229Z,1.7
2018-03-01T10:57:06.218Z,1.69
2018-03-01T10:58:06.231Z,1.73
2018-03-01T10:59:06.262Z,1.73
2018-03-01T11:00:06.233Z,1.73
2018-03-01T11:01:06.217Z,1.72
2018-03-01T11:02:06.210Z,1.72
2018-03-01T11:03:06.260Z,1.7
2018-03-01T11:04:06.237Z,1.68
2018-03-01T11:05:06.225Z,1.67
2018-03-01T11:06:06.233Z,1.69
2018-03-01T11:07:06.234Z,1.7
2018-03-01T11:08:06.241Z,1.72
2018-03-01T11:09:06.252Z,1.7
2018-03-01T11:10:06.520Z,1.71
2018-03-01T11:11:06.249Z,1.71
2018-03-01T11:12:06.297Z,1.7
2018-03-01T11:13:06.256Z,1.71
2018-03-01T11:14:06.297Z,1.71
2018-03-01T11:15:06.299Z,1.7
2018-03-01T11:16:06.271Z,1.71
2018-03-01T11:17:06.268Z,1.72
2018-03-01T11:20:12.559Z,1.7
2018-03-01T11:21:06.411Z,1.7
2018-03-01T11:22:06.561Z,1.69
2018-03-01T11:23:06.276Z,1.69
2018-03-01T11:24:06.436Z,1.69
2018-03-01T11:25:06.459Z,1.7
2018-03-01T11:26:06.363Z,1.71
2018-03-01T11:27:06.472Z,1.72
2018-03-01T11:28:06.296Z,1.71
2018-03-01T11:29:06.297Z,1.69
2018-03-01T11:30:06.317Z,1.69
2018-03-01T11:31:06.308Z,1.68
2018-03-01T11:32:06.331Z,1.7
2018-03-01T11:33:06.301Z,1.7
2018-03-01T11:34:06.390Z,1.7
2018-03-01T11:35:06.605Z,1.72
2018-03-01T11:36:06.302Z,1.73
2018-03-01T11:37:06.325Z,1.73
2018-03-01T11:38:06.316Z,1.73
2018-03-01T11:39:06.333Z,1.74
2018-03-01T11:40:06.377Z,1.73
2018-03-01T11:41:06.324Z,1.73
2018-03-01T11:42:06.344Z,1.72
2018-03-01T11:43:06.318Z,1.72
2018-03-01T11:44:06.407Z,1.71
2018-03-01T11:45:06.370Z,1.72
2018-03-01T11:46:06.359Z,1.72
2018-03-01T11:47:06.346Z,1.72
2018-03-01T11:48:06.354Z,1.72
2018-03-01T11:49:06.515Z,1.74
2018-03-01T11:50:06.368Z,1.74
2018-03-01T11:51:06.368Z,1.73
2018-03-01T11:52:06.381Z,1.72
2018-03-01T11:53:06.370Z,1.74
2018-03-01T11:54:06.397Z,1.73
2018-03-01T11:55:06.362Z,1.73
2018-03-01T11:56:06.366Z,1.75
2018-03-01T11:57:06.382Z,1.74
2018-03-01T11:58:06.392Z,1.74
2018-03-01T11:59:06.413Z,1.72
2018-03-01T12:00:06.408Z,1.75
2018-03-01T12:01:06.400Z,1.72
2018-03-01T12:02:06.398Z,1.76
2018-03-01T12:03:06.382Z,1.76
2018-03-01T12:04:06.387Z,1.76
2018-03-01T12:05:06.414Z,1.74
2018-03-01T12:06:06.464Z,1.76
2018-03-01T12:07:06.432Z,1.76
2018-03-01T12:08:06.400Z,1.77
2018-03-01T12:09:06.409Z,1.75
2018-03-01T12:10:06.386Z,1.77
2018-03-01T12:11:06.408Z,1.77
2018-03-01T12:12:06.408Z,1.78
2018-03-01T12:13:06.419Z,1.8
2018-03-01T12:14:06.409Z,1.74
2018-03-01T12:15:06.466Z,1.78
2018-03-01T12:16:06.427Z,1.75
2018-03-01T12:17:06.456Z,1.75
2018-03-01T12:18:06.453Z,1.76
2018-03-01T12:19:06.459Z,1.75
2018-03-01T12:20:06.431Z,1.76
2018-03-01T12:21:06.434Z,1.73
2018-03-01T12:22:06.729Z,1.74
2018-03-01T12:23:06.467Z,1.74
2018-03-01T12:24:06.473Z,1.74
2018-03-01T12:25:06.460Z,1.73
2018-03-01T12:26:06.468Z,1.73
2018-03-01T12:27:06.474Z,1.74
2018-03-01T12:28:06.764Z,1.74
2018-03-01T12:29:06.484Z,1.75
2018-03-01T12:30:06.644Z,1.77
2018-03-01T12:31:06.465Z,1.76
2018-03-01T12:32:06.458Z,1.77
2018-03-01T12:33:06.516Z,1.77
2018-03-01T12:34:06.473Z,1.76
2018-03-01T12:35:06.478Z,1.76
2018-03-01T12:36:06.497Z,1.75
2018-03-01T12:37:06.494Z,1.74
2018-03-01T12:38:06.539Z,1.73
2018-03-01T12:39:06.502Z,1.75
2018-03-01T12:40:06.648Z,1.74
2018-03-01T12:41:06.501Z,1.74
2018-03-01T12:42:06.492Z,1.75
2018-03-01T12:43:06.517Z,1.74
2018-03-01T12:44:06.508Z,1.73
2018-03-01T12:45:06.500Z,1.75
2018-03-01T12:46:07.234Z,1.74
2018-03-01T12:47:06.516Z,1.73
2018-03-01T12:48:06.874Z,1.74
2018-03-01T12:49:06.522Z,1.74
2018-03-01T12:50:06.516Z,1.75
2018-03-01T12:51:06.533Z,1.75
2018-03-01T12:52:06.745Z,1.78
2018-03-01T12:53:06.546Z,1.76
2018-03-01T12:54:06.604Z,1.75
2018-03-01T12:55:06.531Z,1.74
2018-03-01T12:56:06.551Z,1.74
2018-03-01T12:57:06.550Z,1.75
2018-03-01T12:58:06.581Z,1.75
2018-03-01T12:59:06.550Z,1.74
2018-03-01T13:00:06.575Z,1.77
2018-03-01T13:01:06.553Z,1.77
2018-03-01T13:02:06.562Z,1.76
2018-03-01T13:03:06.582Z,1.77
2018-03-01T13:04:06.566Z,1.75
2018-03-01T13:05:06.612Z,1.79
2018-03-01T13:06:06.592Z,1.79
2018-03-01T13:07:06.602Z,1.78
2018-03-01T13:08:06.595Z,1.8
2018-03-01T13:09:06.607Z,1.75
2018-03-01T13:10:06.623Z,1.76
2018-03-01T13:11:06.615Z,1.77
2018-03-01T13:12:06.633Z,1.79
2018-03-01T13:13:06.624Z,1.77
2018-03-01T13:14:06.631Z,1.77
2018-03-01T13:15:06.990Z,1.78
2018-03-01T13:16:06.648Z,1.77
2018-03-01T13:17:06.637Z,1.78
2018-03-01T13:18:06.641Z,1.81
2018-03-01T13:19:06.663Z,1.78
2018-03-01T13:20:06.721Z,1.77
2018-03-01T13:21:06.645Z,1.78
2018-03-01T13:22:06.655Z,1.76
2018-03-01T13:23:06.668Z,1.74